< Typhoon 201709 2017 Season Typhoon 201711 >
Typhoon 201710 (HAITANG)
General InformationDetailed Track InformationTrack Information on Google MapsForecast History on Google MapsAccess Analytics MapList of All Images || NewsDisaster Info.WeblogTrackbackTyphoon FrontTwiphoonTyphoon Now!Typhoon ImaginationJMA Disaster Info. XMLResourceGoogle EarthGE AnimationAtom FeedGeoJSON
Detalied Best Track Wind (Time Zone = UTC)
Year Month Day Hour Lat. Long. Wind (kt) Gust (kt) Direc. of Major Storm Axis Radius of Major Storm Axis (nm) Radius of Minor Storm Axis (nm) Direc. of Major Gale Axis Radius of Major Gale Axis (nm) Radius of Minor Gale Axis (nm) Image
2017 7 27 12 19.2 117.8 0 0 - - - - - - Image
2017 7 27 18 19.4 117.2 0 0 - - - - - - Image
2017 7 28 00 19.3 116.6 0 0 - - - - - - Image
2017 7 28 06 19.2 116.1 0 0 - - - - - - Image
2017 7 28 12 18.5 115.8 0 0 - - - - - - Image
2017 7 28 18 18.0 115.8 35 0 - - - S 240 120 Image
2017 7 29 00 18.1 116.2 35 0 - - - S 240 120 Image
2017 7 29 06 18.2 116.6 40 0 - - - S 240 120 Image
2017 7 29 12 18.6 117.3 40 0 - - - S 240 120 Image
2017 7 29 18 19.0 118.2 40 0 - - - S 240 120 Image
2017 7 30 00 20.1 119.4 40 0 - - - S 240 120 Image
2017 7 30 06 21.9 120.3 45 0 - - - S 240 120 Image
2017 7 30 12 23.0 120.5 40 0 - - - S 240 120 Image
2017 7 30 18 24.7 120.3 40 0 - - - S 240 120 Image
2017 7 31 00 26.2 118.6 35 0 - - - S 240 120 Image
2017 7 31 06 27.2 117.6 0 0 - - - - - - Image
2017 7 31 12 28.2 117.1 0 0 - - - - - - Image
2017 7 31 18 29.2 116.6 0 0 - - - - - - Image
2017 8 1 00 29.8 116.3 0 0 - - - - - - Image
2017 8 1 06 30.4 116.0 0 0 - - - - - - Image
2017 8 1 12 31.0 115.7 0 0 - - - - - - Image
2017 8 1 18 31.4 115.5 0 0 - - - - - - Image
2017 8 2 00 31.8 115.8 0 0 - - - - - - Image
2017 8 2 06 32.4 115.9 0 0 - - - - - - Image
2017 8 2 12 33.3 116.0 0 0 - - - - - - Image
2017 8 2 18 34.1 116.2 0 0 - - - - - - Image
Japan Meteorological Agency Best Track Data | Correction Date : 2017-09-26
< Typhoon 201709 2017 Season Typhoon 201711 >

Help